createdAt,value
2022-11-10T00:00:15.455Z,51
2022-11-10T00:01:20.648Z,50
2022-11-10T00:02:25.465Z,53
2022-11-10T00:03:30.017Z,48
2022-11-10T00:04:34.349Z,41
2022-11-10T00:05:38.420Z,39
2022-11-10T00:06:42.507Z,40
2022-11-10T00:07:49.068Z,51
2022-11-10T00:08:53.217Z,54
2022-11-10T00:09:57.281Z,34
2022-11-10T00:11:01.479Z,32
2022-11-10T00:12:05.888Z,43
2022-11-10T00:13:09.895Z,47
2022-11-10T00:14:14.225Z,41
2022-11-10T00:15:23.652Z,39
2022-11-10T00:16:32.802Z,35
2022-11-10T00:17:42.025Z,41
2022-11-10T00:18:45.973Z,39
2022-11-10T00:19:50.124Z,36
2022-11-10T00:20:54.117Z,41
2022-11-10T00:21:58.182Z,25
2022-11-10T00:23:02.272Z,43
2022-11-10T00:24:06.321Z,39
2022-11-10T00:25:10.529Z,41
2022-11-10T00:26:14.595Z,42
2022-11-10T00:27:18.788Z,27
2022-11-10T00:28:23.385Z,39
2022-11-10T00:29:28.028Z,41
2022-11-10T00:30:32.453Z,35
2022-11-10T00:31:36.498Z,44
2022-11-10T00:32:40.674Z,43
2022-11-10T00:33:45.257Z,41
2022-11-10T00:34:49.232Z,42
2022-11-10T00:35:53.338Z,39
2022-11-10T00:36:57.349Z,43
2022-11-10T00:38:01.567Z,35
2022-11-10T00:39:06.063Z,44
2022-11-10T00:40:10.615Z,39
2022-11-10T00:41:14.729Z,43
2022-11-10T00:42:18.864Z,29
2022-11-10T00:43:26.439Z,45
2022-11-10T00:44:27.860Z,43
2022-11-10T00:45:32.092Z,42
2022-11-10T00:46:36.269Z,39
2022-11-10T00:47:40.781Z,41
2022-11-10T00:48:45.337Z,41
2022-11-10T00:49:49.401Z,49
2022-11-10T00:50:53.532Z,50
2022-11-10T00:51:58.012Z,47
2022-11-10T00:53:02.022Z,43
2022-11-10T00:54:06.502Z,47
2022-11-10T00:55:10.655Z,47
2022-11-10T00:56:14.769Z,50
2022-11-10T00:57:19.117Z,45
2022-11-10T00:58:23.830Z,46
2022-11-10T00:59:28.100Z,50
2022-11-10T01:00:32.669Z,51
2022-11-10T01:01:36.737Z,43
2022-11-10T01:02:40.825Z,45
2022-11-10T01:03:44.793Z,49
2022-11-10T01:04:48.965Z,47
2022-11-10T01:05:53.060Z,40
2022-11-10T01:06:57.192Z,49
2022-11-10T01:08:01.717Z,44
2022-11-10T01:09:05.687Z,51
2022-11-10T01:10:09.792Z,53
2022-11-10T01:11:14.092Z,52
2022-11-10T01:12:18.621Z,54
2022-11-10T01:13:22.898Z,54
2022-11-10T01:14:27.292Z,36
2022-11-10T01:15:31.791Z,45
2022-11-10T01:16:36.396Z,55
2022-11-10T01:17:40.445Z,54
2022-11-10T01:18:44.969Z,29
2022-11-10T01:19:52.214Z,61
2022-11-10T01:20:56.617Z,59
2022-11-10T01:22:00.765Z,45
2022-11-10T01:23:04.897Z,58
2022-11-10T01:24:08.953Z,61
2022-11-10T01:25:13.666Z,54
2022-11-10T01:26:18.069Z,56
2022-11-10T01:27:22.105Z,58
2022-11-10T01:28:26.445Z,62
2022-11-10T01:29:30.866Z,53
2022-11-10T01:30:34.962Z,56
2022-11-10T01:31:38.989Z,61
2022-11-10T01:32:43.086Z,57
2022-11-10T01:33:47.170Z,58
2022-11-10T01:34:51.497Z,61
2022-11-10T01:35:55.754Z,51
2022-11-10T01:37:00.086Z,37
2022-11-10T01:38:04.547Z,56
2022-11-10T01:39:09.002Z,52
2022-11-10T01:40:13.633Z,53
2022-11-10T01:41:17.638Z,53
2022-11-10T01:42:21.749Z,53
2022-11-10T01:43:25.776Z,50
2022-11-10T01:44:29.894Z,47
2022-11-10T01:45:36.922Z,50
2022-11-10T01:46:51.254Z,49
2022-11-10T01:47:55.726Z,52
2022-11-10T01:48:59.751Z,46
2022-11-10T01:50:04.384Z,47
2022-11-10T01:51:09.130Z,42
2022-11-10T01:52:16.181Z,47
2022-11-10T01:53:21.072Z,45
2022-11-10T01:54:25.319Z,45
2022-11-10T01:55:35.677Z,45
2022-11-10T01:56:39.961Z,44
2022-11-10T01:57:44.350Z,50
2022-11-10T01:58:48.686Z,37
2022-11-10T01:59:53.205Z,46
2022-11-10T02:00:57.323Z,35
2022-11-10T02:02:01.313Z,43
2022-11-10T02:03:10.868Z,44
2022-11-10T02:04:20.113Z,52
2022-11-10T02:05:24.224Z,49
2022-11-10T02:06:28.324Z,38
2022-11-10T02:07:32.401Z,54
2022-11-10T02:08:36.408Z,48
2022-11-10T02:09:40.557Z,50
2022-11-10T02:10:44.628Z,46
2022-11-10T02:11:48.733Z,38
2022-11-10T02:12:53.018Z,55
2022-11-10T02:13:57.650Z,56
2022-11-10T02:15:01.898Z,50
2022-11-10T02:16:06.578Z,53
2022-11-10T02:17:11.173Z,56
2022-11-10T02:18:15.254Z,53
2022-11-10T02:19:19.730Z,52
2022-11-10T02:20:23.824Z,55
2022-11-10T02:21:27.981Z,55
2022-11-10T02:22:31.996Z,61
2022-11-10T02:23:36.056Z,60
2022-11-10T02:24:40.137Z,65
2022-11-10T02:25:44.644Z,59
2022-11-10T02:26:48.728Z,59
2022-11-10T02:27:55.256Z,64
2022-11-10T02:28:59.552Z,62
2022-11-10T02:30:03.989Z,58
2022-11-10T02:31:08.623Z,51
2022-11-10T02:32:12.667Z,68
2022-11-10T02:33:16.832Z,61
2022-11-10T02:34:20.944Z,61
2022-11-10T02:35:25.366Z,61
2022-11-10T02:36:29.459Z,60
2022-11-10T02:37:33.630Z,57
2022-11-10T02:38:37.618Z,64
2022-11-10T02:39:41.707Z,60
2022-11-10T02:40:45.816Z,66
2022-11-10T02:41:50.317Z,57
2022-11-10T02:42:54.329Z,48
2022-11-10T02:43:58.739Z,57
2022-11-10T02:45:03.079Z,66
2022-11-10T02:46:07.672Z,69
2022-11-10T02:47:11.696Z,67
2022-11-10T02:48:15.904Z,69
2022-11-10T02:49:20.343Z,63
2022-11-10T02:50:24.560Z,71
2022-11-10T02:51:29.013Z,64
2022-11-10T02:52:33.530Z,74
2022-11-10T02:53:38.074Z,69
2022-11-10T02:54:42.114Z,71
2022-11-10T02:55:46.403Z,70
2022-11-10T02:56:50.772Z,81
2022-11-10T02:57:55.288Z,72
2022-11-10T02:58:59.333Z,54
2022-11-10T03:00:03.464Z,78
2022-11-10T03:01:08.086Z,76
2022-11-10T03:02:12.254Z,74
2022-11-10T03:03:16.668Z,73
2022-11-10T03:04:20.929Z,77
2022-11-10T03:05:25.356Z,78
2022-11-10T03:06:29.922Z,73
2022-11-10T03:07:33.873Z,70
2022-11-10T03:08:38.115Z,73
2022-11-10T03:09:42.607Z,79
2022-11-10T03:10:46.743Z,68
2022-11-10T03:11:51.235Z,60
2022-11-10T03:12:55.219Z,66
2022-11-10T03:14:01.748Z,69
2022-11-10T03:15:03.336Z,77
2022-11-10T03:16:08.263Z,68
2022-11-10T03:17:12.604Z,79
2022-11-10T03:18:17.199Z,78
2022-11-10T03:19:21.680Z,81
2022-11-10T03:20:25.683Z,82
2022-11-10T03:21:29.775Z,66
2022-11-10T03:22:36.840Z,79
2022-11-10T03:23:38.339Z,80
2022-11-10T03:24:42.628Z,84
2022-11-10T03:25:46.967Z,80
2022-11-10T03:26:51.055Z,91
2022-11-10T03:27:55.707Z,87
2022-11-10T03:29:00.000Z,84
2022-11-10T03:30:04.313Z,66
2022-11-10T03:31:08.847Z,71
2022-11-10T03:32:12.823Z,88
2022-11-10T03:33:16.992Z,70
2022-11-10T03:34:21.259Z,81
2022-11-10T03:35:25.704Z,88
2022-11-10T03:36:30.248Z,69
2022-11-10T03:37:34.232Z,79
2022-11-10T03:38:38.253Z,90
2022-11-10T03:39:42.539Z,79
2022-11-10T03:41:12.367Z,72
2022-11-10T03:41:51.465Z,83
2022-11-10T03:42:55.576Z,93
2022-11-10T03:43:59.808Z,87
2022-11-10T03:45:04.308Z,99
2022-11-10T03:46:08.763Z,97
2022-11-10T03:47:12.857Z,101
2022-11-10T03:48:16.986Z,101
2022-11-10T03:49:21.013Z,93
2022-11-10T03:50:25.069Z,99
2022-11-10T03:51:29.074Z,95
2022-11-10T03:52:33.283Z,103
2022-11-10T03:53:38.635Z,80
2022-11-10T03:54:42.944Z,96
2022-11-10T03:55:47.495Z,104
2022-11-10T03:56:51.504Z,105
2022-11-10T03:57:55.593Z,100
2022-11-10T03:59:02.637Z,90
2022-11-10T04:00:07.140Z,77
2022-11-10T04:01:11.776Z,91
2022-11-10T04:02:16.161Z,87
2022-11-10T04:03:21.087Z,101
2022-11-10T04:04:25.349Z,112
2022-11-10T04:05:34.965Z,87
2022-11-10T04:06:44.432Z,114
2022-11-10T04:07:53.600Z,110
2022-11-10T04:09:02.736Z,113
2022-11-10T04:10:07.188Z,110
2022-11-10T04:11:11.351Z,104
2022-11-10T04:12:17.491Z,103
2022-11-10T04:13:24.830Z,113
2022-11-10T04:14:34.248Z,117
2022-11-10T04:15:43.364Z,117
2022-11-10T04:16:47.663Z,109
2022-11-10T04:17:52.075Z,123
2022-11-10T04:18:56.127Z,116
2022-11-10T04:20:00.445Z,104
2022-11-10T04:21:04.902Z,104
2022-11-10T04:22:09.332Z,103
2022-11-10T04:23:13.551Z,103
2022-11-10T04:24:23.139Z,117
2022-11-10T04:25:27.300Z,115
2022-11-10T04:26:31.880Z,98
2022-11-10T04:27:35.979Z,117
2022-11-10T04:28:40.435Z,99
2022-11-10T04:29:44.455Z,95
2022-11-10T04:30:48.659Z,93
2022-11-10T04:31:52.679Z,117
2022-11-10T04:32:56.879Z,117
2022-11-10T04:34:01.277Z,106
2022-11-10T04:35:05.357Z,123
2022-11-10T04:36:09.880Z,120
2022-11-10T04:37:14.079Z,120
2022-11-10T04:38:18.671Z,117
2022-11-10T04:39:22.693Z,124
2022-11-10T04:40:26.917Z,116
2022-11-10T04:41:31.268Z,123
2022-11-10T04:42:35.444Z,110
2022-11-10T04:43:39.484Z,102
2022-11-10T04:44:43.556Z,111
2022-11-10T04:45:48.023Z,100
2022-11-10T04:46:52.377Z,90
2022-11-10T04:47:56.828Z,103
2022-11-10T04:49:01.571Z,101
2022-11-10T04:50:06.003Z,97
2022-11-10T04:51:10.703Z,92
2022-11-10T04:52:15.000Z,108
2022-11-10T04:53:19.404Z,106
2022-11-10T04:54:23.253Z,106
2022-11-10T04:55:27.812Z,106
2022-11-10T04:56:31.869Z,115
2022-11-10T04:57:36.516Z,98
2022-11-10T04:58:40.944Z,127
2022-11-10T04:59:44.968Z,121
2022-11-10T05:00:49.083Z,102
2022-11-10T05:01:53.185Z,109
2022-11-10T05:02:57.808Z,112
2022-11-10T05:04:02.426Z,121
2022-11-10T05:05:06.941Z,120
2022-11-10T05:06:11.244Z,110
2022-11-10T05:07:15.798Z,96
2022-11-10T05:08:20.240Z,105
2022-11-10T05:09:24.264Z,125
2022-11-10T05:10:28.415Z,114
2022-11-10T05:11:32.463Z,114
2022-11-10T05:12:36.985Z,107
2022-11-10T05:13:41.473Z,109
2022-11-10T05:14:45.714Z,108
2022-11-10T05:15:50.655Z,113
2022-11-10T05:16:54.944Z,114
2022-11-10T05:17:59.348Z,110
2022-11-10T05:19:03.980Z,107
2022-11-10T05:20:08.180Z,111
2022-11-10T05:21:12.708Z,119
2022-11-10T05:22:16.719Z,126
2022-11-10T05:23:21.082Z,131
2022-11-10T05:24:30.456Z,109
2022-11-10T05:25:34.541Z,111
2022-11-10T05:26:38.636Z,118
2022-11-10T05:27:42.613Z,119
2022-11-10T05:28:46.786Z,108
2022-11-10T05:29:50.817Z,126
2022-11-10T05:30:55.248Z,108
2022-11-10T05:31:59.480Z,132
2022-11-10T05:33:04.081Z,110
2022-11-10T05:34:08.133Z,104
2022-11-10T05:35:12.604Z,111
2022-11-10T05:36:16.808Z,125
2022-11-10T05:37:20.880Z,124
2022-11-10T05:38:25.499Z,98
2022-11-10T05:39:29.612Z,120
2022-11-10T05:40:34.174Z,109
2022-11-10T05:41:38.619Z,108
2022-11-10T05:42:42.737Z,118
2022-11-10T05:43:46.723Z,124
2022-11-10T05:44:50.831Z,108
2022-11-10T05:45:54.977Z,120
2022-11-10T05:46:59.637Z,110
2022-11-10T05:48:04.049Z,107
2022-11-10T05:49:08.024Z,111
2022-11-10T05:50:12.298Z,109
2022-11-10T05:51:16.545Z,115
2022-11-10T05:52:20.852Z,111
2022-11-10T05:53:25.164Z,109
2022-11-10T05:54:29.045Z,124
2022-11-10T05:55:33.067Z,114
2022-11-10T05:56:37.224Z,117
2022-11-10T05:57:41.771Z,110
2022-11-10T05:58:45.747Z,109
2022-11-10T05:59:50.100Z,124
2022-11-10T06:00:54.517Z,128
2022-11-10T06:01:58.976Z,127
2022-11-10T06:03:03.209Z,125
2022-11-10T06:04:08.281Z,109
2022-11-10T06:05:13.500Z,108
2022-11-10T06:06:18.042Z,108
2022-11-10T06:07:22.627Z,102
2022-11-10T06:08:27.132Z,96
2022-11-10T06:09:31.643Z,104
2022-11-10T06:10:36.147Z,90
2022-11-10T06:11:40.356Z,96
2022-11-10T06:12:46.510Z,90
2022-11-10T06:13:48.875Z,96
2022-11-10T06:14:53.835Z,88
2022-11-10T06:15:58.052Z,88
2022-11-10T06:17:02.187Z,106
2022-11-10T06:18:06.384Z,90
2022-11-10T06:19:10.855Z,94
2022-11-10T06:20:15.468Z,90
2022-11-10T06:21:19.576Z,90
2022-11-10T06:22:23.991Z,87
2022-11-10T06:23:28.251Z,86
2022-11-10T06:24:32.944Z,88
2022-11-10T06:25:38.064Z,89
2022-11-10T06:26:42.462Z,90
2022-11-10T06:27:46.986Z,89
2022-11-10T06:28:51.080Z,83
2022-11-10T06:29:55.671Z,91
2022-11-10T06:30:59.804Z,83
2022-11-10T06:32:04.500Z,84
2022-11-10T06:33:08.649Z,82
2022-11-10T06:34:15.192Z,85
2022-11-10T06:35:19.644Z,81
2022-11-10T06:36:24.293Z,85
2022-11-10T06:37:28.690Z,94
2022-11-10T06:38:33.220Z,99
2022-11-10T06:39:37.516Z,96
2022-11-10T06:40:42.123Z,92
2022-11-10T06:41:46.512Z,77
2022-11-10T06:42:51.182Z,89
2022-11-10T06:43:55.719Z,82
2022-11-10T06:45:00.207Z,82
2022-11-10T06:46:04.836Z,76
2022-11-10T06:47:09.515Z,83
2022-11-10T06:48:14.060Z,83
2022-11-10T06:49:18.200Z,87
2022-11-10T06:50:22.815Z,81
2022-11-10T06:51:27.214Z,104
2022-11-10T06:52:31.420Z,86
2022-11-10T06:53:36.071Z,89
2022-11-10T06:54:40.579Z,98
2022-11-10T06:55:45.171Z,83
2022-11-10T06:56:49.708Z,95
2022-11-10T06:57:54.285Z,93
2022-11-10T06:58:58.732Z,97
2022-11-10T07:00:02.924Z,99
2022-11-10T07:01:07.620Z,105
2022-11-10T07:02:12.031Z,95
2022-11-10T07:03:16.347Z,90
2022-11-10T07:04:20.975Z,91
2022-11-10T07:05:25.223Z,102
2022-11-10T07:06:29.592Z,90
2022-11-10T07:07:34.022Z,100
2022-11-10T07:08:38.583Z,95
2022-11-10T07:09:43.389Z,112
2022-11-10T07:10:47.937Z,110
2022-11-10T07:11:54.744Z,92
2022-11-10T07:12:58.937Z,94
2022-11-10T07:14:03.206Z,112
2022-11-10T07:15:07.483Z,116
2022-11-10T07:16:11.627Z,116
2022-11-10T07:17:15.764Z,118
2022-11-10T07:18:20.390Z,110
2022-11-10T07:19:24.400Z,109
2022-11-10T07:20:28.642Z,126
2022-11-10T07:21:32.567Z,119
2022-11-10T07:22:36.925Z,119
2022-11-10T07:23:41.264Z,120
2022-11-10T07:24:45.450Z,105
2022-11-10T07:25:49.954Z,119
2022-11-10T07:26:54.686Z,114
2022-11-10T07:27:58.951Z,108
2022-11-10T07:29:03.163Z,113
2022-11-10T07:30:07.711Z,104
2022-11-10T07:31:12.429Z,114
2022-11-10T07:32:16.759Z,109
2022-11-10T07:33:21.299Z,99
2022-11-10T07:34:25.038Z,99
2022-11-10T07:35:30.478Z,113
2022-11-10T07:36:34.878Z,106
2022-11-10T07:37:39.239Z,112
2022-11-10T07:38:43.340Z,103
2022-11-10T07:39:48.002Z,108
2022-11-10T07:40:52.570Z,104
2022-11-10T07:41:57.102Z,94
2022-11-10T07:43:01.138Z,124
2022-11-10T07:44:05.790Z,117
2022-11-10T07:45:10.389Z,104
2022-11-10T07:46:15.003Z,115
2022-11-10T07:47:19.182Z,101
2022-11-10T07:48:23.886Z,97
2022-11-10T07:49:28.234Z,108
2022-11-10T07:50:32.742Z,106
2022-11-10T07:51:36.870Z,105
2022-11-10T07:52:41.077Z,105
2022-11-10T07:53:45.572Z,123
2022-11-10T07:54:50.198Z,113
2022-11-10T07:55:55.054Z,103
2022-11-10T07:56:59.431Z,102
2022-11-10T07:58:03.933Z,101
2022-11-10T07:59:08.798Z,104
2022-11-10T08:00:12.897Z,106
2022-11-10T08:01:17.831Z,106
2022-11-10T08:02:22.151Z,106
2022-11-10T08:03:26.440Z,104
2022-11-10T08:04:30.349Z,108
2022-11-10T08:05:34.876Z,110
2022-11-10T08:06:39.214Z,106
2022-11-10T08:07:43.512Z,108
2022-11-10T08:08:47.745Z,116
2022-11-10T08:09:52.293Z,109
2022-11-10T08:10:56.829Z,108
2022-11-10T08:12:01.514Z,104
2022-11-10T08:13:06.528Z,104
2022-11-10T08:14:10.994Z,97
2022-11-10T08:15:15.201Z,111
2022-11-10T08:16:19.213Z,111
2022-11-10T08:17:23.309Z,121
2022-11-10T08:18:30.948Z,108
2022-11-10T08:19:31.641Z,117
2022-11-10T08:20:35.924Z,104
2022-11-10T08:21:40.109Z,107
2022-11-10T08:22:44.808Z,105
2022-11-10T08:23:49.327Z,108
2022-11-10T08:24:54.076Z,110
2022-11-10T08:25:58.420Z,94
2022-11-10T08:27:02.892Z,108
2022-11-10T08:28:07.050Z,106
2022-11-10T08:29:16.782Z,101
2022-11-10T08:30:24.373Z,102
2022-11-10T08:31:28.518Z,103
2022-11-10T08:32:40.108Z,96
2022-11-10T08:33:44.212Z,111
2022-11-10T08:34:48.785Z,103
2022-11-10T08:35:52.890Z,103
2022-11-10T08:36:57.474Z,105
2022-11-10T08:38:06.609Z,95
2022-11-10T08:39:09.441Z,100
2022-11-10T08:40:13.777Z,101
2022-11-10T08:41:17.835Z,101
2022-11-10T08:42:21.940Z,106
2022-11-10T08:43:26.790Z,106
2022-11-10T08:44:31.066Z,102
2022-11-10T08:45:35.337Z,104
2022-11-10T08:46:39.992Z,103
2022-11-10T08:47:44.913Z,105
2022-11-10T08:48:49.790Z,116
2022-11-10T08:49:54.246Z,101
2022-11-10T08:50:58.699Z,100
2022-11-10T08:52:03.511Z,104
2022-11-10T08:53:07.854Z,104
2022-11-10T08:54:12.550Z,100
2022-11-10T08:56:18.990Z,100
2022-11-10T08:58:23.358Z,100
2022-11-10T08:59:27.739Z,106
2022-11-10T09:00:31.966Z,110
2022-11-10T09:01:36.481Z,102
2022-11-10T09:02:41.086Z,101
2022-11-10T09:03:45.920Z,100
2022-11-10T09:04:50.362Z,98
2022-11-10T09:05:58.178Z,96
2022-11-10T09:06:59.709Z,101
2022-11-10T09:08:04.279Z,101
2022-11-10T09:09:08.704Z,95
2022-11-10T09:10:13.059Z,86
2022-11-10T09:11:17.328Z,88
2022-11-10T09:12:21.973Z,89
2022-11-10T09:13:30.052Z,88
2022-11-10T09:14:31.213Z,96
2022-11-10T09:15:35.567Z,90
2022-11-10T09:16:40.687Z,92
2022-11-10T09:17:45.347Z,87
2022-11-10T09:18:49.904Z,98
2022-11-10T09:19:54.594Z,96
2022-11-10T09:20:59.236Z,97
2022-11-10T09:22:04.283Z,98
2022-11-10T09:23:08.759Z,89
2022-11-10T09:24:15.902Z,90
2022-11-10T09:25:20.479Z,94
2022-11-10T09:26:25.251Z,91
2022-11-10T09:27:29.851Z,81
2022-11-10T09:28:37.776Z,84
2022-11-10T09:29:42.366Z,87
2022-11-10T09:30:47.054Z,92
2022-11-10T09:31:51.502Z,85
2022-11-10T09:32:56.204Z,76
2022-11-10T09:34:00.742Z,83
2022-11-10T09:35:05.454Z,80
2022-11-10T09:36:10.039Z,82
2022-11-10T09:37:14.639Z,78
2022-11-10T09:38:19.973Z,78
2022-11-10T09:39:24.282Z,85
2022-11-10T09:40:28.883Z,85
2022-11-10T09:41:43.584Z,87
2022-11-10T09:42:48.195Z,94
2022-11-10T09:43:52.730Z,87
2022-11-10T09:45:02.139Z,96
2022-11-10T09:46:12.110Z,99
2022-11-10T09:47:35.483Z,94
2022-11-10T09:48:24.218Z,93
2022-11-10T09:49:30.942Z,92
2022-11-10T09:50:40.674Z,91
2022-11-10T09:51:48.512Z,95
2022-11-10T09:52:52.350Z,96
2022-11-10T09:53:56.840Z,100
2022-11-10T09:55:04.550Z,97
2022-11-10T09:56:19.248Z,101
2022-11-10T09:57:28.887Z,96
2022-11-10T09:58:33.466Z,89
2022-11-10T09:59:43.730Z,89
2022-11-10T10:00:48.259Z,91
2022-11-10T10:01:52.776Z,98
2022-11-10T10:02:56.976Z,87
2022-11-10T10:04:04.537Z,91
2022-11-10T10:05:14.562Z,83
2022-11-10T10:06:24.187Z,91
2022-11-10T10:07:28.672Z,91
2022-11-10T10:08:43.352Z,92
2022-11-10T10:09:52.966Z,92
2022-11-10T10:11:02.770Z,96
2022-11-10T10:12:15.302Z,91
2022-11-10T10:13:30.348Z,93
2022-11-10T10:14:42.968Z,102
2022-11-10T10:15:48.187Z,103
2022-11-10T10:16:57.499Z,103
2022-11-10T10:18:02.304Z,95
2022-11-10T10:19:16.775Z,103
2022-11-10T10:20:24.512Z,98
2022-11-10T10:21:36.988Z,100
2022-11-10T10:22:52.990Z,101
2022-11-10T10:24:10.202Z,98
2022-11-10T10:25:07.322Z,102
2022-11-10T10:26:17.056Z,99
2022-11-10T10:27:24.190Z,99
2022-11-10T10:28:28.818Z,95
2022-11-10T10:29:37.387Z,97
2022-11-10T10:30:46.117Z,103
2022-11-10T10:31:50.767Z,99
2022-11-10T10:32:55.219Z,102
2022-11-10T10:33:59.921Z,103
2022-11-10T10:35:04.406Z,101
2022-11-10T10:36:09.055Z,100
2022-11-10T10:37:16.593Z,87
2022-11-10T10:38:21.694Z,86
2022-11-10T10:39:28.850Z,84
2022-11-10T10:40:36.027Z,87
2022-11-10T10:41:40.791Z,84
2022-11-10T10:42:45.266Z,89
2022-11-10T10:43:50.046Z,86
2022-11-10T10:44:54.791Z,86
2022-11-10T10:46:09.350Z,84
2022-11-10T10:47:14.115Z,89
2022-11-10T10:48:19.004Z,89
2022-11-10T10:49:29.441Z,90
2022-11-10T10:50:30.926Z,83
2022-11-10T10:51:35.590Z,76
2022-11-10T10:52:40.161Z,80
2022-11-10T10:53:44.742Z,78
2022-11-10T10:54:49.239Z,90
2022-11-10T10:55:58.983Z,77
2022-11-10T10:57:03.458Z,77
2022-11-10T10:58:18.510Z,70
2022-11-10T10:59:28.083Z,86
2022-11-10T11:00:32.755Z,74
2022-11-10T11:01:42.799Z,68
2022-11-10T11:02:47.220Z,70
2022-11-10T11:03:57.053Z,61
2022-11-10T11:05:01.549Z,60
2022-11-10T11:06:11.324Z,52
2022-11-10T11:07:16.330Z,52
2022-11-10T11:08:21.537Z,56
2022-11-10T11:09:25.499Z,47
2022-11-10T11:10:35.206Z,43
2022-11-10T11:11:39.779Z,39
2022-11-10T11:12:44.281Z,42
2022-11-10T11:13:48.547Z,36
2022-11-10T11:14:53.024Z,43
2022-11-10T11:16:07.963Z,27
2022-11-10T11:17:13.710Z,32
2022-11-10T11:18:21.346Z,32
2022-11-10T11:19:25.243Z,27
2022-11-10T11:20:34.916Z,35
2022-11-10T11:21:42.456Z,30
2022-11-10T11:22:55.040Z,25
2022-11-10T11:24:04.920Z,35
2022-11-10T11:25:14.918Z,25
2022-11-10T11:26:27.472Z,28
2022-11-10T11:27:42.072Z,35
2022-11-10T11:28:51.821Z,25
2022-11-10T11:30:06.767Z,25
2022-11-10T11:31:16.268Z,29
2022-11-10T11:32:20.964Z,25
2022-11-10T11:33:37.459Z,26
2022-11-10T11:34:46.832Z,29
2022-11-10T11:35:56.858Z,26
2022-11-10T11:37:12.105Z,32
2022-11-10T11:38:21.306Z,33
2022-11-10T11:39:30.676Z,28
2022-11-10T11:40:45.656Z,28
2022-11-10T11:41:57.599Z,25
2022-11-10T11:43:09.780Z,28
2022-11-10T11:44:24.615Z,27
2022-11-10T11:45:34.487Z,25
2022-11-10T11:46:48.875Z,27
2022-11-10T11:47:59.175Z,26
2022-11-10T11:49:12.127Z,25
2022-11-10T11:50:21.664Z,27
2022-11-10T11:51:33.739Z,28
2022-11-10T11:52:40.832Z,26
2022-11-10T11:53:53.200Z,25
2022-11-10T11:55:08.083Z,25
2022-11-10T11:56:23.165Z,25
2022-11-10T11:57:31.031Z,27
2022-11-10T11:58:47.292Z,25
2022-11-10T12:00:01.894Z,28
2022-11-10T12:01:14.584Z,25
2022-11-10T12:02:24.281Z,30
2022-11-10T12:03:31.362Z,25
2022-11-10T12:04:38.575Z,25
2022-11-10T12:05:43.182Z,25
2022-11-10T12:06:53.585Z,28
2022-11-10T12:08:00.706Z,25
2022-11-10T12:09:13.367Z,29
2022-11-10T12:10:22.761Z,29
2022-11-10T12:11:37.581Z,31
2022-11-10T12:12:47.519Z,29
2022-11-10T12:13:59.845Z,25
2022-11-10T12:15:09.706Z,27
2022-11-10T12:16:19.409Z,25
2022-11-10T12:17:31.818Z,25
2022-11-10T12:18:43.544Z,25
2022-11-10T12:19:56.278Z,29
2022-11-10T12:21:08.705Z,31
2022-11-10T12:22:18.950Z,34
2022-11-10T12:23:28.517Z,30
2022-11-10T12:24:43.848Z,26
2022-11-10T12:25:56.693Z,25
2022-11-10T12:27:11.405Z,25
2022-11-10T12:28:19.164Z,27
2022-11-10T12:29:26.136Z,28
2022-11-10T12:30:33.806Z,25
2022-11-10T12:31:38.436Z,36
2022-11-10T12:32:43.070Z,27
2022-11-10T12:33:50.505Z,25
2022-11-10T12:34:54.910Z,32
2022-11-10T12:36:02.164Z,35
2022-11-10T12:37:06.667Z,26
2022-11-10T12:38:14.445Z,31
2022-11-10T12:39:18.980Z,29
2022-11-10T12:40:26.093Z,25
2022-11-10T12:41:33.422Z,25
2022-11-10T12:42:37.909Z,28
2022-11-10T12:43:42.407Z,29
2022-11-10T12:44:57.224Z,28
2022-11-10T12:46:09.794Z,37
2022-11-10T12:47:34.811Z,33
2022-11-10T12:48:59.215Z,25
2022-11-10T12:50:09.356Z,30
2022-11-10T12:51:18.426Z,27
2022-11-10T12:52:38.441Z,32
2022-11-10T12:53:50.937Z,35
2022-11-10T12:55:05.019Z,43
2022-11-10T12:56:18.795Z,47
2022-11-10T12:57:54.619Z,40
2022-11-10T12:58:58.136Z,41
2022-11-10T13:00:19.412Z,41
2022-11-10T13:01:35.237Z,41
2022-11-10T13:03:04.418Z,43
2022-11-10T13:04:32.347Z,40
2022-11-10T13:05:38.527Z,45
2022-11-10T13:06:53.457Z,44
2022-11-10T13:08:06.656Z,45
2022-11-10T13:09:12.547Z,46
2022-11-10T13:10:28.936Z,48
2022-11-10T13:11:35.030Z,44
2022-11-10T13:12:40.785Z,48
2022-11-10T13:13:59.647Z,43
2022-11-10T13:15:02.273Z,37
2022-11-10T13:16:07.270Z,42
2022-11-10T13:17:12.884Z,42
2022-11-10T13:18:28.943Z,38
2022-11-10T13:19:34.536Z,51
2022-11-10T13:20:39.321Z,59
2022-11-10T13:21:47.064Z,45
2022-11-10T13:22:51.630Z,47
2022-11-10T13:23:56.019Z,46
2022-11-10T13:25:04.061Z,39
2022-11-10T13:26:16.185Z,38
2022-11-10T13:27:29.539Z,38
2022-11-10T13:28:35.601Z,37
2022-11-10T13:29:52.342Z,32
2022-11-10T13:31:00.297Z,36
2022-11-10T13:32:10.095Z,36
2022-11-10T13:33:15.840Z,33
2022-11-10T13:34:29.923Z,31
2022-11-10T13:35:35.797Z,32
2022-11-10T13:36:41.931Z,26
2022-11-10T13:37:47.237Z,32
2022-11-10T13:38:51.583Z,25
2022-11-10T13:39:57.488Z,29
2022-11-10T13:42:52.473Z,28
2022-11-10T13:43:59.823Z,29
2022-11-10T13:45:04.522Z,25
2022-11-10T13:46:20.673Z,27
2022-11-10T13:47:37.364Z,29
2022-11-10T13:48:50.388Z,28
2022-11-10T13:49:56.614Z,27
2022-11-10T13:51:03.380Z,26
2022-11-10T13:52:14.170Z,26
2022-11-10T13:53:26.040Z,25
2022-11-10T13:54:39.992Z,25
2022-11-10T13:55:56.155Z,27
2022-11-10T13:57:07.621Z,30
2022-11-10T13:58:21.544Z,27
2022-11-10T13:59:27.048Z,32
2022-11-10T14:00:33.384Z,36
2022-11-10T14:01:40.680Z,33
2022-11-10T14:02:46.726Z,39
2022-11-10T14:03:56.255Z,47
2022-11-10T14:05:01.574Z,45
2022-11-10T14:06:07.624Z,54
2022-11-10T14:07:15.597Z,48
2022-11-10T14:08:21.456Z,50
2022-11-10T14:09:26.988Z,44
2022-11-10T14:10:38.577Z,51
2022-11-10T14:11:50.532Z,55
2022-11-10T14:12:58.349Z,50
2022-11-10T14:14:04.531Z,44
2022-11-10T14:15:13.064Z,49
2022-11-10T14:16:18.645Z,52
2022-11-10T14:17:24.405Z,61
2022-11-10T14:18:33.728Z,69
2022-11-10T14:19:44.937Z,67
2022-11-10T14:20:50.340Z,76
2022-11-10T14:22:01.393Z,89
2022-11-10T14:23:10.044Z,85
2022-11-10T14:24:25.916Z,89
2022-11-10T14:25:34.004Z,91
2022-11-10T14:26:39.940Z,104
2022-11-10T14:27:46.148Z,107
2022-11-10T14:28:51.461Z,102
2022-11-10T14:29:57.137Z,98
2022-11-10T14:31:08.012Z,109
2022-11-10T14:32:18.807Z,109
2022-11-10T14:33:24.186Z,110
2022-11-10T14:34:31.048Z,118
2022-11-10T14:35:37.220Z,109
2022-11-10T14:36:51.000Z,116
2022-11-10T14:37:58.165Z,112
2022-11-10T14:39:05.311Z,119
2022-11-10T14:40:12.762Z,116
2022-11-10T14:41:18.723Z,115
2022-11-10T14:42:24.148Z,109
2022-11-10T14:43:32.724Z,109
2022-11-10T14:44:39.108Z,100
2022-11-10T14:45:44.816Z,107
2022-11-10T14:46:53.060Z,113
2022-11-10T14:47:58.309Z,115
2022-11-10T14:49:03.740Z,109
2022-11-10T14:50:09.488Z,111
2022-11-10T14:51:20.049Z,113
2022-11-10T14:52:25.812Z,124
2022-11-10T14:53:32.121Z,105
2022-11-10T14:54:39.122Z,120
2022-11-10T14:55:45.080Z,113
2022-11-10T14:56:51.374Z,122
2022-11-10T14:57:56.901Z,119
2022-11-10T14:59:10.547Z,121
2022-11-10T15:00:16.858Z,110
2022-11-10T15:01:23.533Z,125
2022-11-10T15:02:39.517Z,120
2022-11-10T15:03:44.753Z,122
2022-11-10T15:04:49.381Z,120
2022-11-10T15:05:54.481Z,124
2022-11-10T15:06:59.166Z,125
2022-11-10T15:08:03.625Z,129
2022-11-10T15:09:08.562Z,120
2022-11-10T15:10:18.473Z,116
2022-11-10T15:11:26.586Z,116
2022-11-10T15:12:40.948Z,113
2022-11-10T15:13:40.846Z,118
2022-11-10T15:14:45.801Z,113
2022-11-10T15:15:52.594Z,117
2022-11-10T15:17:07.338Z,119
2022-11-10T15:18:12.136Z,119
2022-11-10T15:19:24.673Z,124
2022-11-10T15:20:31.720Z,119
2022-11-10T15:21:36.265Z,121
2022-11-10T15:22:40.886Z,117
2022-11-10T15:23:45.638Z,118
2022-11-10T15:24:55.410Z,113
2022-11-10T15:26:00.170Z,116
2022-11-10T15:27:04.714Z,118
2022-11-10T15:28:09.782Z,117
2022-11-10T15:29:14.510Z,125
2022-11-10T15:30:21.575Z,109
2022-11-10T15:31:26.125Z,120
2022-11-10T15:32:30.839Z,117
2022-11-10T15:33:40.538Z,110
2022-11-10T15:34:50.142Z,122
2022-11-10T15:35:54.786Z,111